createdAt,value
2022-12-04T00:01:20.024Z,95813.63
2022-12-04T00:03:46.984Z,95784.78
2022-12-04T00:06:18.812Z,95800.53
2022-12-04T00:08:47.408Z,95798.09
2022-12-04T00:11:16.478Z,95797.34
2022-12-04T00:13:43.715Z,95798.47
2022-12-04T00:16:13.752Z,95786.13
2022-12-04T00:18:40.383Z,95777.44
2022-12-04T00:21:10.826Z,95787.38
2022-12-04T00:23:38.162Z,95790.16
2022-12-04T00:26:11.701Z,95785.88
2022-12-04T00:28:38.826Z,95787.84
2022-12-04T00:31:27.254Z,95804.81
2022-12-04T00:33:54.026Z,95789.78
2022-12-04T00:36:23.413Z,95790.88
2022-12-04T00:38:50.342Z,95794.50
2022-12-04T00:41:19.552Z,95801.91
2022-12-04T00:43:46.285Z,95798.53
2022-12-04T00:46:13.182Z,95801.06
2022-12-04T00:48:40.059Z,95817.19
2022-12-04T00:51:10.162Z,95809.31
2022-12-04T00:53:37.442Z,95813.78
2022-12-04T00:56:09.361Z,95797.56
2022-12-04T00:58:36.285Z,95814.97
2022-12-04T01:01:08.028Z,95781.25
2022-12-04T01:03:35.567Z,95802.06
2022-12-04T01:06:03.370Z,95801.09
2022-12-04T01:08:30.042Z,95806.53
2022-12-04T01:10:57.458Z,95795.16
2022-12-04T01:13:24.951Z,95793.47
2022-12-04T01:15:52.534Z,95799.78
2022-12-04T01:18:19.161Z,95796.50
2022-12-04T01:20:48.624Z,95800.84
2022-12-04T01:23:15.325Z,95806.31
2022-12-04T01:25:58.628Z,95804.59
2022-12-04T01:28:25.667Z,95810.03
2022-12-04T01:31:10.553Z,95808.38
2022-12-04T01:33:38.056Z,95813.69
2022-12-04T01:36:07.284Z,95809.31
2022-12-04T01:38:35.224Z,95811.25
2022-12-04T01:41:02.247Z,95812.25
2022-12-04T01:43:32.433Z,95814.19
2022-12-04T01:46:00.520Z,95800.88
2022-12-04T01:48:32.067Z,95803.66
2022-12-04T01:51:05.479Z,95800.16
2022-12-04T01:53:33.743Z,95794.94
2022-12-04T01:56:00.680Z,95802.94
2022-12-04T01:58:32.088Z,95795.06
2022-12-04T02:01:08.454Z,95792.50
2022-12-04T02:03:37.182Z,95783.81
2022-12-04T02:06:04.456Z,95781.63
2022-12-04T02:08:31.523Z,95800.88
2022-12-04T02:11:09.631Z,95798.22
2022-12-04T02:13:46.052Z,95787.69
2022-12-04T02:16:23.834Z,95784.31
2022-12-04T02:19:08.645Z,95785.13
2022-12-04T02:21:38.019Z,95773.66
2022-12-04T02:24:18.416Z,95772.81
2022-12-04T02:26:53.749Z,95770.25
2022-12-04T02:29:23.261Z,95762.38
2022-12-04T02:32:09.730Z,95754.41
2022-12-04T02:34:43.263Z,95753.56
2022-12-04T02:37:16.037Z,95758.03
2022-12-04T02:39:55.073Z,95759.00
2022-12-04T02:42:30.829Z,95748.47
2022-12-04T02:45:01.633Z,95753.78
2022-12-04T02:47:28.295Z,95764.56
2022-12-04T02:50:04.504Z,95759.25
2022-12-04T02:52:41.949Z,95739.88
2022-12-04T02:55:14.962Z,95734.56
2022-12-04T02:57:45.565Z,95732.88
2022-12-04T03:00:12.989Z,95737.38
2022-12-04T03:03:00.084Z,95740.03
2022-12-04T03:05:33.492Z,95730.44
2022-12-04T03:08:04.671Z,95718.84
2022-12-04T03:10:35.748Z,95716.31
2022-12-04T03:13:10.165Z,95714.63
2022-12-04T03:16:26.336Z,95703.13
2022-12-04T03:19:07.245Z,95704.13
2022-12-04T03:21:38.352Z,95707.72
2022-12-04T03:24:18.631Z,95718.38
2022-12-04T03:26:48.043Z,95720.19
2022-12-04T03:29:23.973Z,95715.81
2022-12-04T03:32:03.921Z,95724.78
2022-12-04T03:34:51.118Z,95723.94
2022-12-04T03:37:21.714Z,95728.28
2022-12-04T03:39:57.883Z,95724.19
2022-12-04T03:42:28.124Z,95732.03
2022-12-04T03:45:01.893Z,95733.00
2022-12-04T03:47:38.615Z,95736.53
2022-12-04T03:50:14.164Z,95733.97
2022-12-04T03:52:46.762Z,95734.94
2022-12-04T03:55:37.095Z,95744.72
2022-12-04T03:58:08.336Z,95748.38
2022-12-04T04:00:38.170Z,95731.91
2022-12-04T04:03:10.594Z,95739.53
2022-12-04T04:05:41.593Z,95745.84
2022-12-04T04:08:27.949Z,95737.84
2022-12-04T04:11:09.126Z,95728.06
2022-12-04T04:14:03.145Z,95711.38
2022-12-04T04:16:51.030Z,95703.38
2022-12-04T04:19:38.293Z,95703.50
2022-12-04T04:22:37.788Z,95707.16
2022-12-04T04:25:08.093Z,95707.25
2022-12-04T04:27:34.817Z,95705.44
2022-12-04T04:30:01.550Z,95706.28
2022-12-04T04:32:38.917Z,95706.44
2022-12-04T04:35:24.509Z,95702.91
2022-12-04T04:37:56.885Z,95707.38
2022-12-04T04:40:36.206Z,95702.06
2022-12-04T04:43:14.872Z,95699.50
2022-12-04T04:45:45.916Z,95707.50
2022-12-04T04:48:16.102Z,95704.84
2022-12-04T04:50:43.514Z,95704.00
2022-12-04T04:53:15.685Z,95697.97
2022-12-04T04:55:43.761Z,95701.44
2022-12-04T04:58:16.834Z,95707.75
2022-12-04T05:00:55.084Z,95706.88
2022-12-04T05:03:21.823Z,95706.88
2022-12-04T05:05:49.090Z,95707.16
2022-12-04T05:08:15.766Z,95703.38
2022-12-04T05:10:42.581Z,95693.97
2022-12-04T05:13:11.988Z,95695.69
2022-12-04T05:15:38.759Z,95695.53
2022-12-04T05:18:05.553Z,95692.03
2022-12-04T05:20:32.569Z,95708.97
2022-12-04T05:22:59.262Z,95711.63
2022-12-04T05:25:26.537Z,95720.44
2022-12-04T05:27:53.413Z,95715.25
2022-12-04T05:30:20.433Z,95720.56
2022-12-04T05:32:47.098Z,95714.63
2022-12-04T05:35:13.849Z,95716.22
2022-12-04T05:37:40.554Z,95713.56
2022-12-04T05:40:08.434Z,95718.88
2022-12-04T05:42:35.314Z,95715.34
2022-12-04T05:45:01.948Z,95707.38
2022-12-04T05:47:30.912Z,95704.84
2022-12-04T05:49:58.375Z,95718.16
2022-12-04T05:52:25.131Z,95718.16
2022-12-04T05:54:51.850Z,95714.63
2022-12-04T05:57:18.406Z,95710.19
2022-12-04T05:59:44.998Z,95701.34
2022-12-04T06:02:11.681Z,95698.69
2022-12-04T06:04:38.487Z,95715.50
2022-12-04T06:07:05.347Z,95713.78
2022-12-04T06:09:33.687Z,95712.06
2022-12-04T06:12:00.311Z,95698.94
2022-12-04T06:14:26.958Z,95706.91
2022-12-04T06:16:53.723Z,95702.53
2022-12-04T06:19:21.899Z,95692.75
2022-12-04T06:21:51.809Z,95686.59
2022-12-04T06:24:22.231Z,95696.38
2022-12-04T06:27:18.969Z,95702.66
2022-12-04T06:29:36.760Z,95708.69
2022-12-04T06:32:03.510Z,95682.38
2022-12-04T06:34:30.314Z,95692.16
2022-12-04T06:36:56.919Z,95689.16
2022-12-04T06:39:24.535Z,95690.59
2022-12-04T06:41:51.165Z,95687.94
2022-12-04T06:44:17.863Z,95696.25
2022-12-04T06:46:47.569Z,95698.69
2022-12-04T06:49:14.781Z,95685.38
2022-12-04T06:51:41.487Z,95681.50
2022-12-04T06:54:09.678Z,95689.38
2022-12-04T06:56:36.788Z,95688.38
2022-12-04T06:59:04.436Z,95703.28
2022-12-04T07:01:33.469Z,95709.31
2022-12-04T07:04:01.997Z,95714.75
2022-12-04T07:06:30.811Z,95727.69
2022-12-04T07:09:02.747Z,95726.72
2022-12-04T07:11:30.242Z,95727.44
2022-12-04T07:13:57.261Z,95720.31
2022-12-04T07:16:25.687Z,95711.38
2022-12-04T07:18:56.427Z,95706.75
2022-12-04T07:21:29.226Z,95704.09
2022-12-04T07:24:01.073Z,95713.66
2022-12-04T07:26:30.442Z,95708.31
2022-12-04T07:28:58.218Z,95714.47
2022-12-04T07:31:26.853Z,95717.97
2022-12-04T07:33:55.098Z,95717.88
2022-12-04T07:36:22.849Z,95708.09
2022-12-04T07:38:49.970Z,95710.75
2022-12-04T07:41:17.904Z,95712.47
2022-12-04T07:43:45.261Z,95724.94
2022-12-04T07:46:15.197Z,95723.94
2022-12-04T07:48:42.847Z,95716.81
2022-12-04T07:51:11.769Z,95720.31
2022-12-04T07:53:38.725Z,95701.69
2022-12-04T07:56:07.409Z,95694.66
2022-12-04T07:58:34.500Z,95689.22
2022-12-04T08:01:07.162Z,95680.41
2022-12-04T08:03:33.849Z,95691.91
2022-12-04T08:06:02.292Z,95704.25
2022-12-04T08:08:29.048Z,95700.59
2022-12-04T08:10:55.998Z,95721.88
2022-12-04T08:13:22.607Z,95735.06
2022-12-04T08:15:49.165Z,95742.06
2022-12-04T08:18:15.783Z,95730.47
2022-12-04T08:20:42.378Z,95732.16
2022-12-04T08:23:08.984Z,95718.84
2022-12-04T08:25:39.711Z,95726.72
2022-12-04T08:28:06.937Z,95724.16
2022-12-04T08:30:35.668Z,95722.25
2022-12-04T08:33:03.005Z,95712.78
2022-12-04T08:35:29.668Z,95701.91
2022-12-04T08:37:56.294Z,95701.69
2022-12-04T08:40:23.855Z,95723.69
2022-12-04T08:42:50.651Z,95730.34
2022-12-04T08:45:17.577Z,95727.91
2022-12-04T08:47:49.219Z,95727.28
2022-12-04T08:50:18.898Z,95731.81
2022-12-04T08:52:46.046Z,95743.56
2022-12-04T08:55:12.769Z,95736.75
2022-12-04T08:57:39.331Z,95723.53
2022-12-04T09:00:06.994Z,95719.25
2022-12-04T09:02:33.683Z,95716.66
2022-12-04T09:05:00.393Z,95728.34
2022-12-04T09:07:27.460Z,95744.41
2022-12-04T09:09:54.129Z,95738.31
2022-12-04T09:12:20.682Z,95739.38
2022-12-04T09:14:47.350Z,95751.19
2022-12-04T09:17:13.932Z,95773.28
2022-12-04T09:19:41.157Z,95769.16
2022-12-04T09:22:07.764Z,95766.56
2022-12-04T09:24:34.402Z,95754.22
2022-12-04T09:27:01.380Z,95740.88
2022-12-04T09:29:32.249Z,95750.19
2022-12-04T09:31:58.860Z,95735.88
2022-12-04T09:34:25.838Z,95723.50
2022-12-04T09:36:52.835Z,95707.66
2022-12-04T09:39:19.402Z,95702.31
2022-12-04T09:42:05.333Z,95711.28
2022-12-04T09:44:45.964Z,95725.47
2022-12-04T09:47:22.861Z,95753.00
2022-12-04T09:50:01.046Z,95733.34
2022-12-04T09:53:01.417Z,95728.84
2022-12-04T09:55:33.604Z,95729.53
2022-12-04T09:58:02.720Z,95718.75
2022-12-04T10:00:30.215Z,95706.25
2022-12-04T10:03:01.837Z,95704.31
2022-12-04T10:05:50.181Z,95695.31
2022-12-04T10:08:40.658Z,95686.19
2022-12-04T10:11:22.353Z,95694.06
2022-12-04T10:14:00.898Z,95692.09
2022-12-04T10:16:46.599Z,95685.50
2022-12-04T10:19:16.831Z,95689.19
2022-12-04T10:22:07.704Z,95696.94
2022-12-04T10:24:52.667Z,95698.56
2022-12-04T10:27:28.538Z,95706.41
2022-12-04T10:29:59.192Z,95716.97
2022-12-04T10:32:29.680Z,95720.50
2022-12-04T10:35:00.955Z,95724.88
2022-12-04T10:37:27.829Z,95714.31
2022-12-04T10:39:58.649Z,95714.63
2022-12-04T10:42:31.524Z,95694.38
2022-12-04T10:44:58.350Z,95680.59
2022-12-04T10:47:25.526Z,95696.44
2022-12-04T10:50:02.354Z,95684.19
2022-12-04T10:52:29.193Z,95694.19
2022-12-04T10:55:00.105Z,95686.56
2022-12-04T10:57:37.807Z,95682.31
2022-12-04T11:00:24.788Z,95675.41
2022-12-04T11:02:52.788Z,95666.78
2022-12-04T11:05:31.637Z,95672.44
2022-12-04T11:08:00.282Z,95662.25
2022-12-04T11:10:38.800Z,95648.75
2022-12-04T11:13:14.932Z,95649.28
2022-12-04T11:15:55.433Z,95633.94
2022-12-04T11:18:27.239Z,95653.06
2022-12-04T11:20:58.751Z,95657.81
2022-12-04T11:23:26.968Z,95652.84
2022-12-04T11:26:02.110Z,95649.75
2022-12-04T11:28:47.884Z,95646.75
2022-12-04T11:31:20.193Z,95638.84
2022-12-04T11:33:53.511Z,95638.22
2022-12-04T11:36:35.018Z,95652.31
2022-12-04T11:39:15.414Z,95648.88
2022-12-04T11:41:42.401Z,95677.75
2022-12-04T11:44:25.366Z,95674.78
2022-12-04T11:46:58.244Z,95674.34
2022-12-04T11:49:26.601Z,95675.72
2022-12-04T11:52:01.956Z,95676.25
2022-12-04T11:54:32.632Z,95681.47
2022-12-04T11:57:08.687Z,95686.66
2022-12-04T12:00:09.447Z,95680.47
2022-12-04T12:02:50.252Z,95680.38
2022-12-04T12:05:53.682Z,95666.16
2022-12-04T12:08:23.172Z,95661.91
2022-12-04T12:10:55.694Z,95662.94
2022-12-04T12:13:37.040Z,95659.84
2022-12-04T12:16:18.390Z,95659.28
2022-12-04T12:19:22.713Z,95649.16
2022-12-04T12:22:19.126Z,95635.69
2022-12-04T12:25:13.090Z,95632.25
2022-12-04T12:27:53.511Z,95627.63
2022-12-04T12:30:21.820Z,95614.16
2022-12-04T12:33:20.316Z,95588.97
2022-12-04T12:36:01.576Z,95586.06
2022-12-04T12:38:34.779Z,95572.44
2022-12-04T12:41:07.569Z,95575.38
2022-12-04T12:43:37.300Z,95583.00
2022-12-04T12:46:10.474Z,95583.47
2022-12-04T12:49:06.832Z,95591.91
2022-12-04T12:51:37.873Z,95598.56
2022-12-04T12:54:41.390Z,95595.47
2022-12-04T12:57:17.808Z,95603.09
2022-12-04T13:00:28.902Z,95596.38
2022-12-04T13:03:00.428Z,95595.13
2022-12-04T13:05:41.266Z,95592.88
2022-12-04T13:08:46.389Z,95598.53
2022-12-04T13:11:18.535Z,95607.13
2022-12-04T13:13:48.574Z,95601.38
2022-12-04T13:16:21.115Z,95607.84
2022-12-04T13:18:53.642Z,95597.44
2022-12-04T13:21:30.103Z,95595.16
2022-12-04T13:24:05.692Z,95593.78
2022-12-04T13:26:52.629Z,95587.19
2022-12-04T13:29:53.593Z,95588.31
2022-12-04T13:32:49.627Z,95588.88
2022-12-04T13:35:24.550Z,95576.78
2022-12-04T13:38:08.901Z,95567.50
2022-12-04T13:40:41.463Z,95573.84
2022-12-04T13:43:33.554Z,95566.09
2022-12-04T13:46:03.710Z,95559.22
2022-12-04T13:48:37.690Z,95543.66
2022-12-04T13:51:08.242Z,95535.78
2022-12-04T13:53:37.664Z,95544.75
2022-12-04T13:56:09.490Z,95554.59
2022-12-04T13:58:38.082Z,95550.53
2022-12-04T14:01:06.370Z,95562.88
2022-12-04T14:03:35.876Z,95569.38
2022-12-04T14:06:05.439Z,95568.66
2022-12-04T14:08:39.096Z,95572.34
2022-12-04T14:11:12.839Z,95566.44
2022-12-04T14:13:42.374Z,95578.66
2022-12-04T14:16:38.552Z,95583.28
2022-12-04T14:19:06.626Z,95583.44
2022-12-04T14:21:44.641Z,95577.38
2022-12-04T14:24:29.718Z,95581.88
2022-12-04T14:27:14.059Z,95571.34
2022-12-04T14:29:53.709Z,95569.66
2022-12-04T14:32:27.666Z,95576.97
2022-12-04T14:34:55.052Z,95576.13
2022-12-04T14:37:36.769Z,95571.78
2022-12-04T14:40:07.631Z,95580.75
2022-12-04T14:42:38.840Z,95574.56
2022-12-04T14:45:28.749Z,95564.88
2022-12-04T14:48:18.735Z,95562.34
2022-12-04T14:51:12.766Z,95573.88
2022-12-04T14:54:16.776Z,95558.78
2022-12-04T14:57:04.350Z,95555.44
2022-12-04T14:59:51.264Z,95550.09
2022-12-04T15:02:20.404Z,95547.72
2022-12-04T15:04:49.009Z,95565.53
2022-12-04T15:07:20.933Z,95561.19
2022-12-04T15:10:14.508Z,95540.97
2022-12-04T15:13:01.359Z,95556.81
2022-12-04T15:15:29.716Z,95558.97
2022-12-04T15:17:58.179Z,95565.13
2022-12-04T15:20:25.247Z,95560.06
2022-12-04T15:22:53.948Z,95579.44
2022-12-04T15:29:34.881Z,95583.50
2022-12-04T15:32:05.859Z,95594.06
2022-12-04T15:34:44.054Z,95597.03
2022-12-04T15:37:20.533Z,95611.22
2022-12-04T15:39:49.863Z,95618.50
2022-12-04T15:42:21.776Z,95616.69
2022-12-04T15:44:55.102Z,95630.16
2022-12-04T15:47:23.986Z,95623.97
2022-12-04T15:49:50.789Z,95627.66
2022-12-04T15:52:19.848Z,95641.00
2022-12-04T15:54:56.526Z,95632.13
2022-12-04T15:57:35.756Z,95633.25
2022-12-04T16:00:05.269Z,95631.41
2022-12-04T16:02:34.349Z,95626.06
2022-12-04T16:05:22.798Z,95623.81
2022-12-04T16:07:53.025Z,95627.19
2022-12-04T16:10:29.828Z,95624.66
2022-12-04T16:12:59.068Z,95621.16
2022-12-04T16:15:31.913Z,95631.00
2022-12-04T16:17:59.786Z,95624.78
2022-12-04T16:20:27.489Z,95620.47
2022-12-04T16:22:54.771Z,95614.28
2022-12-04T16:25:21.454Z,95621.28
2022-12-04T16:27:59.137Z,95621.41
2022-12-04T16:30:36.060Z,95623.25
2022-12-04T16:33:02.840Z,95626.06
2022-12-04T16:35:31.424Z,95630.56
2022-12-04T16:37:59.047Z,95633.09
2022-12-04T16:40:26.118Z,95640.09
2022-12-04T16:42:52.970Z,95637.19
2022-12-04T16:45:26.461Z,95641.00
2022-12-04T16:47:53.420Z,95638.72
2022-12-04T16:50:20.307Z,95648.72
2022-12-04T16:52:47.265Z,95653.97
2022-12-04T16:55:31.572Z,95657.50
2022-12-04T16:57:58.706Z,95658.19
2022-12-04T17:00:25.398Z,95661.88
2022-12-04T17:02:53.090Z,95672.13
2022-12-04T17:05:25.460Z,95663.28
2022-12-04T17:07:52.584Z,95672.81
2022-12-04T17:10:23.738Z,95682.56
2022-12-04T17:12:54.666Z,95676.19
2022-12-04T17:15:22.503Z,95679.84
2022-12-04T17:17:49.132Z,95675.47
2022-12-04T17:20:17.764Z,95673.03
2022-12-04T17:22:44.670Z,95682.16
2022-12-04T17:25:11.409Z,95669.91
2022-12-04T17:27:38.630Z,95679.00
2022-12-04T17:30:06.408Z,95678.50
2022-12-04T17:32:34.835Z,95680.25
2022-12-04T17:35:02.494Z,95678.84
2022-12-04T17:37:31.887Z,95675.41
2022-12-04T17:39:58.832Z,95674.66
2022-12-04T17:42:25.717Z,95671.25
2022-12-04T17:44:52.273Z,95681.22
2022-12-04T17:47:20.593Z,95679.78
2022-12-04T17:49:47.146Z,95687.22
2022-12-04T17:52:13.713Z,95683.81
2022-12-04T17:54:40.312Z,95690.25
2022-12-04T17:57:07.354Z,95688.63
2022-12-04T17:59:33.924Z,95692.41
2022-12-04T18:02:00.509Z,95693.63
2022-12-04T18:04:29.002Z,95696.53
2022-12-04T18:06:56.420Z,95702.44
2022-12-04T18:09:23.389Z,95693.09
2022-12-04T18:11:50.046Z,95698.72
2022-12-04T18:14:18.965Z,95713.47
2022-12-04T18:16:48.184Z,95704.97
2022-12-04T18:19:15.057Z,95707.25
2022-12-04T18:21:42.162Z,95714.13
2022-12-04T18:24:10.225Z,95715.66
2022-12-04T18:26:39.473Z,95713.19
2022-12-04T18:29:07.149Z,95706.00
2022-12-04T18:31:34.036Z,95713.41
2022-12-04T18:34:00.689Z,95712.94
2022-12-04T18:36:31.852Z,95714.50
2022-12-04T18:39:04.449Z,95706.44
2022-12-04T18:41:31.491Z,95712.00
2022-12-04T18:43:58.537Z,95708.34
2022-12-04T18:46:26.099Z,95713.06
2022-12-04T18:48:54.452Z,95707.72
2022-12-04T18:51:39.306Z,95711.63
2022-12-04T18:54:12.049Z,95723.38
2022-12-04T18:56:38.964Z,95719.56
2022-12-04T18:59:12.603Z,95728.97
2022-12-04T19:01:40.224Z,95723.47
2022-12-04T19:04:09.069Z,95725.69
2022-12-04T19:06:47.312Z,95726.22
2022-12-04T19:09:16.944Z,95734.97
2022-12-04T19:11:44.138Z,95740.19
2022-12-04T19:14:21.027Z,95743.22
2022-12-04T19:16:50.304Z,95745.44
2022-12-04T19:19:17.061Z,95748.13
2022-12-04T19:21:44.352Z,95753.84
2022-12-04T19:24:11.194Z,95753.53
2022-12-04T19:26:38.148Z,95749.69
2022-12-04T19:29:05.536Z,95750.38
2022-12-04T19:31:34.191Z,95752.75
2022-12-04T19:34:01.177Z,95740.16
2022-12-04T19:36:30.331Z,95751.56
2022-12-04T19:38:58.150Z,95754.78
2022-12-04T19:41:28.149Z,95755.47
2022-12-04T19:43:56.939Z,95764.22
2022-12-04T19:46:26.903Z,95766.59
2022-12-04T19:48:56.953Z,95776.63
2022-12-04T19:51:24.513Z,95773.47
2022-12-04T19:53:51.856Z,95784.06
2022-12-04T19:56:24.470Z,95777.53
2022-12-04T19:58:53.039Z,95767.38
2022-12-04T20:01:21.305Z,95763.75
2022-12-04T20:03:47.915Z,95760.25
2022-12-04T20:06:17.950Z,95769.00
2022-12-04T20:08:45.239Z,95766.88
2022-12-04T20:11:17.797Z,95768.97
2022-12-04T20:13:46.067Z,95768.50
2022-12-04T20:16:16.224Z,95774.97
2022-12-04T20:18:43.394Z,95770.06
2022-12-04T20:21:13.245Z,95769.59
2022-12-04T20:23:44.313Z,95781.53
2022-12-04T20:26:12.847Z,95776.53
2022-12-04T20:28:40.125Z,95775.72
2022-12-04T20:31:20.080Z,95773.94
2022-12-04T20:33:48.425Z,95772.00
2022-12-04T20:36:18.812Z,95780.06
2022-12-04T20:38:45.958Z,95780.78
2022-12-04T20:41:15.856Z,95790.38
2022-12-04T20:43:46.869Z,95785.75
2022-12-04T20:46:15.070Z,95780.28
2022-12-04T20:48:48.121Z,95774.66
2022-12-04T20:51:17.312Z,95776.22
2022-12-04T20:53:44.744Z,95758.91
2022-12-04T20:56:11.794Z,95774.66
2022-12-04T20:58:39.007Z,95772.56
2022-12-04T21:01:10.785Z,95777.53
2022-12-04T21:03:40.310Z,95783.44
2022-12-04T21:06:35.819Z,95782.31
2022-12-04T21:09:05.910Z,95789.91
2022-12-04T21:11:35.726Z,95783.84
2022-12-04T21:14:24.805Z,95781.47
2022-12-04T21:16:52.193Z,95784.41
2022-12-04T21:19:20.480Z,95794.53
2022-12-04T21:21:47.512Z,95794.09
2022-12-04T21:24:15.929Z,95790.28
2022-12-04T21:26:43.159Z,95798.56
2022-12-04T21:29:09.989Z,95789.56
2022-12-04T21:31:39.358Z,95789.84
2022-12-04T21:34:08.825Z,95792.09
2022-12-04T21:36:35.942Z,95793.19
2022-12-04T21:39:02.884Z,95793.63
2022-12-04T21:41:47.825Z,95788.53
2022-12-04T21:44:16.955Z,95795.25
2022-12-04T21:46:44.301Z,95793.72
2022-12-04T21:49:11.238Z,95798.47
2022-12-04T21:51:56.865Z,95796.09
2022-12-04T21:54:25.660Z,95792.16
2022-12-04T21:56:52.550Z,95786.22
2022-12-04T21:59:21.015Z,95790.16
2022-12-04T22:01:47.633Z,95797.41
2022-12-04T22:04:14.367Z,95791.50
2022-12-04T22:06:40.961Z,95803.31
2022-12-04T22:09:09.727Z,95802.00
2022-12-04T22:11:36.845Z,95808.31
2022-12-04T22:14:03.870Z,95816.59
2022-12-04T22:16:32.842Z,95812.34
2022-12-04T22:19:01.595Z,95814.47
2022-12-04T22:21:29.596Z,95817.41
2022-12-04T22:23:57.800Z,95811.34
2022-12-04T22:26:24.784Z,95823.97
2022-12-04T22:28:52.049Z,95821.56
2022-12-04T22:31:21.000Z,95820.16
2022-12-04T22:33:49.901Z,95818.59
2022-12-04T22:36:19.224Z,95819.56
2022-12-04T22:39:08.827Z,95823.34
2022-12-04T22:41:32.661Z,95825.44
2022-12-04T22:43:59.225Z,95829.22
2022-12-04T22:46:26.992Z,95823.41
2022-12-04T22:48:54.420Z,95816.41
2022-12-04T22:51:23.819Z,95810.34
2022-12-04T22:53:53.120Z,95822.97
2022-12-04T22:56:27.903Z,95832.06
2022-12-04T22:58:55.010Z,95843.72
2022-12-04T23:01:24.477Z,95843.97
2022-12-04T23:03:51.956Z,95838.75
2022-12-04T23:06:20.999Z,95841.69
2022-12-04T23:08:47.877Z,95841.78
2022-12-04T23:11:18.943Z,95849.09
2022-12-04T23:14:04.208Z,95856.50
2022-12-04T23:16:33.158Z,95850.56
2022-12-04T23:18:59.885Z,95848.88
2022-12-04T23:21:27.472Z,95856.16
2022-12-04T23:23:54.966Z,95851.78
2022-12-04T23:26:24.732Z,95851.91
2022-12-04T23:28:51.993Z,95848.53
2022-12-04T23:31:19.005Z,95848.69
2022-12-04T23:33:45.573Z,95855.97
2022-12-04T23:36:13.007Z,95861.44
2022-12-04T23:38:40.781Z,95865.91
2022-12-04T23:41:11.298Z,95864.34
2022-12-04T23:43:42.673Z,95865.31
2022-12-04T23:46:11.696Z,95862.78
2022-12-04T23:48:43.561Z,95864.72
2022-12-04T23:51:11.757Z,95883.50
2022-12-04T23:53:38.853Z,95874.78
2022-12-04T23:56:18.667Z,95883.75
2022-12-04T23:58:47.338Z,95894.56
